sensor_id;sensor_type;location;lat;lon;timestamp;temperature;humidity
37754;DHT22;23596;52.520;13.464;2023-01-25T00:00:17;2.70;99.90
37754;DHT22;23596;52.520;13.464;2023-01-25T00:02:43;2.70;99.90
37754;DHT22;23596;52.520;13.464;2023-01-25T00:05:08;2.70;99.90
37754;DHT22;23596;52.520;13.464;2023-01-25T00:07:34;2.70;99.90
37754;DHT22;23596;52.520;13.464;2023-01-25T00:10:00;2.80;99.90
37754;DHT22;23596;52.520;13.464;2023-01-25T00:12:25;2.80;99.90
37754;DHT22;23596;52.520;13.464;2023-01-25T00:14:51;2.80;99.90
37754;DHT22;23596;52.520;13.464;2023-01-25T00:17:16;2.80;99.90
37754;DHT22;23596;52.520;13.464;2023-01-25T00:19:42;2.80;99.90
37754;DHT22;23596;52.520;13.464;2023-01-25T00:22:08;3.00;99.90
37754;DHT22;23596;52.520;13.464;2023-01-25T00:24:33;2.90;99.90
37754;DHT22;23596;52.520;13.464;2023-01-25T00:26:59;2.90;99.90
37754;DHT22;23596;52.520;13.464;2023-01-25T00:29:24;2.90;99.90
37754;DHT22;23596;52.520;13.464;2023-01-25T00:37:01;2.90;99.90
37754;DHT22;23596;52.520;13.464;2023-01-25T00:39:27;2.90;99.90
37754;DHT22;23596;52.520;13.464;2023-01-25T00:41:53;2.90;99.90
37754;DHT22;23596;52.520;13.464;2023-01-25T00:44:18;2.80;99.90
37754;DHT22;23596;52.520;13.464;2023-01-25T00:46:44;2.90;99.90
37754;DHT22;23596;52.520;13.464;2023-01-25T00:49:20;2.90;99.90
37754;DHT22;23596;52.520;13.464;2023-01-25T00:51:46;2.90;99.90
37754;DHT22;23596;52.520;13.464;2023-01-25T00:54:12;3.00;99.90
37754;DHT22;23596;52.520;13.464;2023-01-25T00:56:37;3.00;99.90
37754;DHT22;23596;52.520;13.464;2023-01-25T00:59:03;3.00;99.90
37754;DHT22;23596;52.520;13.464;2023-01-25T01:01:29;2.90;99.90
37754;DHT22;23596;52.520;13.464;2023-01-25T01:03:54;2.90;99.90
37754;DHT22;23596;52.520;13.464;2023-01-25T01:06:45;2.90;99.90
37754;DHT22;23596;52.520;13.464;2023-01-25T01:09:13;2.90;99.90
37754;DHT22;23596;52.520;13.464;2023-01-25T01:21:45;2.90;99.90
37754;DHT22;23596;52.520;13.464;2023-01-25T01:24:11;2.90;99.90
37754;DHT22;23596;52.520;13.464;2023-01-25T01:26:37;2.90;99.90
37754;DHT22;23596;52.520;13.464;2023-01-25T01:29:03;2.90;99.90
37754;DHT22;23596;52.520;13.464;2023-01-25T01:31:29;2.90;99.90
37754;DHT22;23596;52.520;13.464;2023-01-25T01:33:55;2.90;99.90
37754;DHT22;23596;52.520;13.464;2023-01-25T01:36:24;2.80;99.90
37754;DHT22;23596;52.520;13.464;2023-01-25T01:38:50;2.80;99.90
37754;DHT22;23596;52.520;13.464;2023-01-25T01:41:17;2.80;99.90
37754;DHT22;23596;52.520;13.464;2023-01-25T01:43:43;2.70;99.90
37754;DHT22;23596;52.520;13.464;2023-01-25T01:46:20;2.70;99.90
37754;DHT22;23596;52.520;13.464;2023-01-25T01:49:09;2.80;99.90
37754;DHT22;23596;52.520;13.464;2023-01-25T01:54:44;2.80;99.90
37754;DHT22;23596;52.520;13.464;2023-01-25T01:57:21;2.80;99.90
37754;DHT22;23596;52.520;13.464;2023-01-25T02:02:40;2.80;99.90
37754;DHT22;23596;52.520;13.464;2023-01-25T02:05:10;2.80;99.90
37754;DHT22;23596;52.520;13.464;2023-01-25T02:07:38;2.80;99.90
37754;DHT22;23596;52.520;13.464;2023-01-25T02:10:07;2.80;99.90
37754;DHT22;23596;52.520;13.464;2023-01-25T02:12:34;2.80;99.90
37754;DHT22;23596;52.520;13.464;2023-01-25T02:15:01;2.80;99.90
37754;DHT22;23596;52.520;13.464;2023-01-25T02:17:29;2.80;99.90
37754;DHT22;23596;52.520;13.464;2023-01-25T02:20:26;2.80;99.90
37754;DHT22;23596;52.520;13.464;2023-01-25T02:25:37;2.80;99.90
37754;DHT22;23596;52.520;13.464;2023-01-25T02:30:48;2.80;99.90
37754;DHT22;23596;52.520;13.464;2023-01-25T02:33:14;2.80;99.90
37754;DHT22;23596;52.520;13.464;2023-01-25T02:38:09;2.80;99.90
37754;DHT22;23596;52.520;13.464;2023-01-25T02:40:59;2.90;99.90
37754;DHT22;23596;52.520;13.464;2023-01-25T02:43:28;2.80;99.90
37754;DHT22;23596;52.520;13.464;2023-01-25T02:45:59;2.80;99.90
37754;DHT22;23596;52.520;13.464;2023-01-25T02:48:27;2.80;99.90
37754;DHT22;23596;52.520;13.464;2023-01-25T02:50:53;2.80;99.90
37754;DHT22;23596;52.520;13.464;2023-01-25T02:53:18;2.80;99.90
37754;DHT22;23596;52.520;13.464;2023-01-25T02:55:44;2.90;99.90
37754;DHT22;23596;52.520;13.464;2023-01-25T02:58:10;2.90;99.90
37754;DHT22;23596;52.520;13.464;2023-01-25T03:00:35;2.90;99.90
37754;DHT22;23596;52.520;13.464;2023-01-25T03:03:01;2.90;99.90
37754;DHT22;23596;52.520;13.464;2023-01-25T03:05:26;2.90;99.90
37754;DHT22;23596;52.520;13.464;2023-01-25T03:07:52;2.90;99.90
37754;DHT22;23596;52.520;13.464;2023-01-25T03:10:18;2.90;99.90
37754;DHT22;23596;52.520;13.464;2023-01-25T03:12:43;2.90;99.90
37754;DHT22;23596;52.520;13.464;2023-01-25T03:15:09;2.90;99.90
37754;DHT22;23596;52.520;13.464;2023-01-25T03:20:02;2.90;99.90
37754;DHT22;23596;52.520;13.464;2023-01-25T03:22:27;2.80;99.90
37754;DHT22;23596;52.520;13.464;2023-01-25T03:24:53;2.80;99.90
37754;DHT22;23596;52.520;13.464;2023-01-25T03:27:18;2.90;99.90
37754;DHT22;23596;52.520;13.464;2023-01-25T03:29:44;2.90;99.90
37754;DHT22;23596;52.520;13.464;2023-01-25T03:32:10;2.90;99.90
37754;DHT22;23596;52.520;13.464;2023-01-25T03:34:36;2.90;99.90
37754;DHT22;23596;52.520;13.464;2023-01-25T03:37:02;2.90;99.90
37754;DHT22;23596;52.520;13.464;2023-01-25T03:39:28;6.50;99.90
37754;DHT22;23596;52.520;13.464;2023-01-25T03:41:53;3.00;99.90
37754;DHT22;23596;52.520;13.464;2023-01-25T03:44:19;2.90;99.90
37754;DHT22;23596;52.520;13.464;2023-01-25T03:46:45;3.00;99.90
37754;DHT22;23596;52.520;13.464;2023-01-25T03:49:11;3.00;99.90
37754;DHT22;23596;52.520;13.464;2023-01-25T03:51:36;3.10;99.90
37754;DHT22;23596;52.520;13.464;2023-01-25T03:54:03;3.00;99.90
37754;DHT22;23596;52.520;13.464;2023-01-25T03:56:28;3.10;99.90
37754;DHT22;23596;52.520;13.464;2023-01-25T03:58:54;5.20;99.90
37754;DHT22;23596;52.520;13.464;2023-01-25T04:01:20;3.00;99.90
37754;DHT22;23596;52.520;13.464;2023-01-25T04:03:45;3.00;99.90
37754;DHT22;23596;52.520;13.464;2023-01-25T04:06:11;3.00;99.90
37754;DHT22;23596;52.520;13.464;2023-01-25T04:08:37;3.00;99.90
37754;DHT22;23596;52.520;13.464;2023-01-25T04:11:07;3.10;99.90
37754;DHT22;23596;52.520;13.464;2023-01-25T04:13:33;3.10;99.90
37754;DHT22;23596;52.520;13.464;2023-01-25T04:16:01;3.20;99.90
37754;DHT22;23596;52.520;13.464;2023-01-25T04:18:27;3.20;99.90
37754;DHT22;23596;52.520;13.464;2023-01-25T04:20:53;3.40;99.90
37754;DHT22;23596;52.520;13.464;2023-01-25T04:23:20;3.20;99.90
37754;DHT22;23596;52.520;13.464;2023-01-25T04:25:56;3.20;99.90
37754;DHT22;23596;52.520;13.464;2023-01-25T04:28:23;3.20;99.90
37754;DHT22;23596;52.520;13.464;2023-01-25T04:30:49;3.20;99.90
37754;DHT22;23596;52.520;13.464;2023-01-25T04:33:15;3.30;99.90
37754;DHT22;23596;52.520;13.464;2023-01-25T04:35:40;3.20;99.90
37754;DHT22;23596;52.520;13.464;2023-01-25T04:38:06;3.20;99.90
37754;DHT22;23596;52.520;13.464;2023-01-25T04:40:32;3.20;99.90
37754;DHT22;23596;52.520;13.464;2023-01-25T04:42:57;3.20;99.90
37754;DHT22;23596;52.520;13.464;2023-01-25T04:45:24;3.20;99.90
37754;DHT22;23596;52.520;13.464;2023-01-25T04:47:55;3.30;99.90
37754;DHT22;23596;52.520;13.464;2023-01-25T04:50:21;3.30;99.90
37754;DHT22;23596;52.520;13.464;2023-01-25T04:52:46;3.00;99.90
37754;DHT22;23596;52.520;13.464;2023-01-25T04:55:12;3.40;99.90
37754;DHT22;23596;52.520;13.464;2023-01-25T04:57:38;3.40;99.90
37754;DHT22;23596;52.520;13.464;2023-01-25T05:00:04;3.40;99.90
37754;DHT22;23596;52.520;13.464;2023-01-25T05:02:29;3.40;99.90
37754;DHT22;23596;52.520;13.464;2023-01-25T05:04:55;3.40;99.90
37754;DHT22;23596;52.520;13.464;2023-01-25T05:07:20;3.40;99.90
37754;DHT22;23596;52.520;13.464;2023-01-25T05:09:46;3.30;99.90
37754;DHT22;23596;52.520;13.464;2023-01-25T05:12:12;4.20;99.90
37754;DHT22;23596;52.520;13.464;2023-01-25T05:14:41;3.20;99.90
37754;DHT22;23596;52.520;13.464;2023-01-25T05:17:07;3.30;99.90
37754;DHT22;23596;52.520;13.464;2023-01-25T05:19:33;3.20;99.90
37754;DHT22;23596;52.520;13.464;2023-01-25T05:22:00;3.20;99.90
37754;DHT22;23596;52.520;13.464;2023-01-25T05:24:32;3.20;99.90
37754;DHT22;23596;52.520;13.464;2023-01-25T05:26:58;3.20;99.90
37754;DHT22;23596;52.520;13.464;2023-01-25T05:29:32;3.20;99.90
37754;DHT22;23596;52.520;13.464;2023-01-25T05:32:01;3.20;99.90
37754;DHT22;23596;52.520;13.464;2023-01-25T05:34:27;3.20;99.90
37754;DHT22;23596;52.520;13.464;2023-01-25T05:36:53;3.20;99.90
37754;DHT22;23596;52.520;13.464;2023-01-25T05:39:18;3.20;99.90
37754;DHT22;23596;52.520;13.464;2023-01-25T05:41:44;3.20;99.90
37754;DHT22;23596;52.520;13.464;2023-01-25T05:44:10;3.20;99.90
37754;DHT22;23596;52.520;13.464;2023-01-25T05:46:36;3.10;99.90
37754;DHT22;23596;52.520;13.464;2023-01-25T05:49:01;3.10;99.90
37754;DHT22;23596;52.520;13.464;2023-01-25T05:51:27;3.20;99.90
37754;DHT22;23596;52.520;13.464;2023-01-25T05:53:56;3.20;99.90
37754;DHT22;23596;52.520;13.464;2023-01-25T05:56:22;3.20;99.90
37754;DHT22;23596;52.520;13.464;2023-01-25T05:58:56;3.20;99.90
37754;DHT22;23596;52.520;13.464;2023-01-25T06:01:22;3.10;99.90
37754;DHT22;23596;52.520;13.464;2023-01-25T06:03:48;3.20;99.90
37754;DHT22;23596;52.520;13.464;2023-01-25T06:06:14;3.10;99.90
37754;DHT22;23596;52.520;13.464;2023-01-25T06:08:40;3.10;99.90
37754;DHT22;23596;52.520;13.464;2023-01-25T06:11:11;3.20;99.90
37754;DHT22;23596;52.520;13.464;2023-01-25T06:13:37;3.10;99.90
37754;DHT22;23596;52.520;13.464;2023-01-25T06:16:02;3.20;99.90
37754;DHT22;23596;52.520;13.464;2023-01-25T06:18:30;3.10;99.90
37754;DHT22;23596;52.520;13.464;2023-01-25T06:20:56;3.30;99.90
37754;DHT22;23596;52.520;13.464;2023-01-25T06:23:22;3.10;99.90
37754;DHT22;23596;52.520;13.464;2023-01-25T06:25:48;3.10;99.90
37754;DHT22;23596;52.520;13.464;2023-01-25T06:28:14;3.00;99.90
37754;DHT22;23596;52.520;13.464;2023-01-25T06:30:39;3.00;99.90
37754;DHT22;23596;52.520;13.464;2023-01-25T06:33:05;3.00;99.90
37754;DHT22;23596;52.520;13.464;2023-01-25T06:35:31;3.10;99.90
37754;DHT22;23596;52.520;13.464;2023-01-25T06:37:58;3.10;99.90
37754;DHT22;23596;52.520;13.464;2023-01-25T06:40:25;3.10;99.90
37754;DHT22;23596;52.520;13.464;2023-01-25T06:42:51;3.10;99.90
37754;DHT22;23596;52.520;13.464;2023-01-25T06:45:17;3.10;99.90
37754;DHT22;23596;52.520;13.464;2023-01-25T06:47:42;3.00;99.90
37754;DHT22;23596;52.520;13.464;2023-01-25T06:50:09;3.00;99.90
37754;DHT22;23596;52.520;13.464;2023-01-25T06:52:35;3.00;99.90
37754;DHT22;23596;52.520;13.464;2023-01-25T06:55:02;3.00;99.90
37754;DHT22;23596;52.520;13.464;2023-01-25T06:57:27;3.00;99.90
37754;DHT22;23596;52.520;13.464;2023-01-25T06:59:54;3.00;99.90
37754;DHT22;23596;52.520;13.464;2023-01-25T07:02:19;2.90;99.90
37754;DHT22;23596;52.520;13.464;2023-01-25T07:04:45;2.90;99.90
37754;DHT22;23596;52.520;13.464;2023-01-25T07:07:11;2.90;99.90
37754;DHT22;23596;52.520;13.464;2023-01-25T07:09:37;3.00;99.90
37754;DHT22;23596;52.520;13.464;2023-01-25T07:12:02;2.90;99.90
37754;DHT22;23596;52.520;13.464;2023-01-25T07:14:31;3.00;99.90
37754;DHT22;23596;52.520;13.464;2023-01-25T07:16:57;3.00;99.90
37754;DHT22;23596;52.520;13.464;2023-01-25T07:19:23;3.00;99.90
37754;DHT22;23596;52.520;13.464;2023-01-25T07:21:48;3.00;99.90
37754;DHT22;23596;52.520;13.464;2023-01-25T07:24:16;3.00;99.90
37754;DHT22;23596;52.520;13.464;2023-01-25T07:26:42;2.90;99.90
37754;DHT22;23596;52.520;13.464;2023-01-25T07:29:12;2.90;99.90
37754;DHT22;23596;52.520;13.464;2023-01-25T07:31:38;5.70;99.90
37754;DHT22;23596;52.520;13.464;2023-01-25T07:34:04;2.90;99.90
37754;DHT22;23596;52.520;13.464;2023-01-25T07:36:30;2.80;99.90
37754;DHT22;23596;52.520;13.464;2023-01-25T07:38:57;2.90;99.90
37754;DHT22;23596;52.520;13.464;2023-01-25T07:41:26;3.00;99.90
37754;DHT22;23596;52.520;13.464;2023-01-25T07:43:52;3.00;99.90
37754;DHT22;23596;52.520;13.464;2023-01-25T07:46:18;3.00;99.90
37754;DHT22;23596;52.520;13.464;2023-01-25T07:48:48;2.90;99.90
37754;DHT22;23596;52.520;13.464;2023-01-25T07:51:16;3.30;99.90
37754;DHT22;23596;52.520;13.464;2023-01-25T07:53:59;2.90;99.90
37754;DHT22;23596;52.520;13.464;2023-01-25T07:56:33;2.90;99.90
37754;DHT22;23596;52.520;13.464;2023-01-25T07:59:00;2.80;99.90
37754;DHT22;23596;52.520;13.464;2023-01-25T08:01:29;2.90;99.90
37754;DHT22;23596;52.520;13.464;2023-01-25T08:03:59;2.80;99.90
37754;DHT22;23596;52.520;13.464;2023-01-25T08:06:27;2.70;99.90
37754;DHT22;23596;52.520;13.464;2023-01-25T08:09:00;2.70;99.90
37754;DHT22;23596;52.520;13.464;2023-01-25T08:11:29;2.60;99.90
37754;DHT22;23596;52.520;13.464;2023-01-25T08:13:55;2.60;99.90
37754;DHT22;23596;52.520;13.464;2023-01-25T08:16:26;2.60;99.90
37754;DHT22;23596;52.520;13.464;2023-01-25T08:18:54;2.60;99.90
37754;DHT22;23596;52.520;13.464;2023-01-25T08:21:21;2.60;99.90
37754;DHT22;23596;52.520;13.464;2023-01-25T08:23:48;2.60;99.90
37754;DHT22;23596;52.520;13.464;2023-01-25T08:26:14;2.60;99.90
37754;DHT22;23596;52.520;13.464;2023-01-25T08:28:41;2.60;99.90
37754;DHT22;23596;52.520;13.464;2023-01-25T08:31:18;2.60;99.90
37754;DHT22;23596;52.520;13.464;2023-01-25T08:33:44;2.60;99.90
37754;DHT22;23596;52.520;13.464;2023-01-25T08:36:12;2.60;99.90
37754;DHT22;23596;52.520;13.464;2023-01-25T08:38:38;2.60;99.90
37754;DHT22;23596;52.520;13.464;2023-01-25T08:41:15;2.60;99.90
37754;DHT22;23596;52.520;13.464;2023-01-25T08:43:43;2.60;99.90
37754;DHT22;23596;52.520;13.464;2023-01-25T08:46:09;2.60;99.90
37754;DHT22;23596;52.520;13.464;2023-01-25T08:48:35;2.60;99.90
37754;DHT22;23596;52.520;13.464;2023-01-25T08:51:00;2.60;99.90
37754;DHT22;23596;52.520;13.464;2023-01-25T08:53:27;2.50;99.90
37754;DHT22;23596;52.520;13.464;2023-01-25T08:55:53;2.50;99.90
37754;DHT22;23596;52.520;13.464;2023-01-25T08:58:19;2.50;99.90
37754;DHT22;23596;52.520;13.464;2023-01-25T09:00:47;2.40;99.90
37754;DHT22;23596;52.520;13.464;2023-01-25T09:03:13;2.40;99.90
37754;DHT22;23596;52.520;13.464;2023-01-25T09:05:39;2.40;99.90
37754;DHT22;23596;52.520;13.464;2023-01-25T09:08:07;2.40;99.90
37754;DHT22;23596;52.520;13.464;2023-01-25T09:10:32;2.50;99.90
37754;DHT22;23596;52.520;13.464;2023-01-25T09:12:58;2.50;99.90
37754;DHT22;23596;52.520;13.464;2023-01-25T09:15:24;2.60;99.90
37754;DHT22;23596;52.520;13.464;2023-01-25T09:17:51;2.60;99.90
37754;DHT22;23596;52.520;13.464;2023-01-25T09:20:17;2.60;99.90
37754;DHT22;23596;52.520;13.464;2023-01-25T09:22:43;2.70;99.90
37754;DHT22;23596;52.520;13.464;2023-01-25T09:25:09;2.70;99.90
37754;DHT22;23596;52.520;13.464;2023-01-25T09:27:34;2.70;99.90
37754;DHT22;23596;52.520;13.464;2023-01-25T09:30:00;2.70;99.90
37754;DHT22;23596;52.520;13.464;2023-01-25T09:32:26;2.70;99.90
37754;DHT22;23596;52.520;13.464;2023-01-25T09:34:51;2.70;99.90
37754;DHT22;23596;52.520;13.464;2023-01-25T09:37:17;2.80;99.90
37754;DHT22;23596;52.520;13.464;2023-01-25T09:39:43;2.80;99.90
37754;DHT22;23596;52.520;13.464;2023-01-25T09:42:29;2.80;99.90
37754;DHT22;23596;52.520;13.464;2023-01-25T09:47:50;2.80;99.90
37754;DHT22;23596;52.520;13.464;2023-01-25T09:55:40;2.50;99.90
37754;DHT22;23596;52.520;13.464;2023-01-25T09:58:16;2.40;99.90
37754;DHT22;23596;52.520;13.464;2023-01-25T10:00:44;2.40;99.90
37754;DHT22;23596;52.520;13.464;2023-01-25T10:03:40;2.40;99.90
37754;DHT22;23596;52.520;13.464;2023-01-25T10:06:09;2.30;99.90
37754;DHT22;23596;52.520;13.464;2023-01-25T10:08:55;2.30;99.90
37754;DHT22;23596;52.520;13.464;2023-01-25T10:11:30;2.30;99.90
37754;DHT22;23596;52.520;13.464;2023-01-25T10:13:57;2.30;99.90
37754;DHT22;23596;52.520;13.464;2023-01-25T10:16:43;2.40;99.90
37754;DHT22;23596;52.520;13.464;2023-01-25T10:29:55;2.50;99.90
37754;DHT22;23596;52.520;13.464;2023-01-25T10:32:26;2.60;99.90
37754;DHT22;23596;52.520;13.464;2023-01-25T10:34:55;2.60;99.90
37754;DHT22;23596;52.520;13.464;2023-01-25T10:37:26;2.50;99.90
37754;DHT22;23596;52.520;13.464;2023-01-25T10:40:03;2.50;99.90
37754;DHT22;23596;52.520;13.464;2023-01-25T10:42:39;2.50;99.90
37754;DHT22;23596;52.520;13.464;2023-01-25T10:45:15;2.50;99.90
37754;DHT22;23596;52.520;13.464;2023-01-25T10:47:45;2.40;99.90
37754;DHT22;23596;52.520;13.464;2023-01-25T10:50:41;2.40;99.90
37754;DHT22;23596;52.520;13.464;2023-01-25T10:56:23;2.40;99.90
37754;DHT22;23596;52.520;13.464;2023-01-25T10:58:51;2.30;99.90
37754;DHT22;23596;52.520;13.464;2023-01-25T11:01:27;2.30;99.90
37754;DHT22;23596;52.520;13.464;2023-01-25T11:03:53;2.20;99.90
37754;DHT22;23596;52.520;13.464;2023-01-25T11:06:34;2.30;99.90
37754;DHT22;23596;52.520;13.464;2023-01-25T11:09:05;2.30;99.90
37754;DHT22;23596;52.520;13.464;2023-01-25T11:11:57;2.30;99.90
37754;DHT22;23596;52.520;13.464;2023-01-25T11:14:26;2.40;99.90
37754;DHT22;23596;52.520;13.464;2023-01-25T11:16:52;2.40;99.90
37754;DHT22;23596;52.520;13.464;2023-01-25T11:19:38;2.40;99.90
37754;DHT22;23596;52.520;13.464;2023-01-25T11:22:19;2.40;99.90
37754;DHT22;23596;52.520;13.464;2023-01-25T11:24:46;2.40;99.90
37754;DHT22;23596;52.520;13.464;2023-01-25T11:27:23;2.40;99.90
37754;DHT22;23596;52.520;13.464;2023-01-25T11:32:33;2.40;99.90
37754;DHT22;23596;52.520;13.464;2023-01-25T11:34:59;2.40;99.90
37754;DHT22;23596;52.520;13.464;2023-01-25T11:40:23;2.40;99.90
37754;DHT22;23596;52.520;13.464;2023-01-25T11:50:46;2.60;99.90
37754;DHT22;23596;52.520;13.464;2023-01-25T11:53:32;2.60;99.90
37754;DHT22;23596;52.520;13.464;2023-01-25T12:10:21;2.40;99.90
37754;DHT22;23596;52.520;13.464;2023-01-25T12:13:18;2.50;99.90
37754;DHT22;23596;52.520;13.464;2023-01-25T12:21:03;2.40;99.90
37754;DHT22;23596;52.520;13.464;2023-01-25T12:26:28;2.30;99.90
37754;DHT22;23596;52.520;13.464;2023-01-25T12:32:07;2.30;99.90
37754;DHT22;23596;52.520;13.464;2023-01-25T12:34:39;2.30;99.90
37754;DHT22;23596;52.520;13.464;2023-01-25T12:37:23;2.30;99.90
37754;DHT22;23596;52.520;13.464;2023-01-25T12:39:56;2.20;99.90
37754;DHT22;23596;52.520;13.464;2023-01-25T12:42:28;2.20;99.90
37754;DHT22;23596;52.520;13.464;2023-01-25T12:45:26;2.20;99.90
37754;DHT22;23596;52.520;13.464;2023-01-25T12:47:57;2.20;99.90
37754;DHT22;23596;52.520;13.464;2023-01-25T12:50:41;2.10;99.90
37754;DHT22;23596;52.520;13.464;2023-01-25T12:55:47;2.10;99.90
37754;DHT22;23596;52.520;13.464;2023-01-25T13:06:05;2.10;99.90
37754;DHT22;23596;52.520;13.464;2023-01-25T13:16:44;2.20;99.90
37754;DHT22;23596;52.520;13.464;2023-01-25T13:19:19;2.40;99.90
37754;DHT22;23596;52.520;13.464;2023-01-25T13:21:47;2.20;99.90
37754;DHT22;23596;52.520;13.464;2023-01-25T13:24:18;2.20;99.90
37754;DHT22;23596;52.520;13.464;2023-01-25T13:26:47;2.20;99.90
37754;DHT22;23596;52.520;13.464;2023-01-25T13:32:01;2.30;99.90
37754;DHT22;23596;52.520;13.464;2023-01-25T13:37:15;2.30;99.90
37754;DHT22;23596;52.520;13.464;2023-01-25T13:39:53;2.30;99.90
37754;DHT22;23596;52.520;13.464;2023-01-25T13:45:16;2.40;99.90
37754;DHT22;23596;52.520;13.464;2023-01-25T13:50:33;2.20;99.90
37754;DHT22;23596;52.520;13.464;2023-01-25T13:55:44;2.00;99.90
37754;DHT22;23596;52.520;13.464;2023-01-25T13:58:20;2.00;99.90
37754;DHT22;23596;52.520;13.464;2023-01-25T14:00:48;2.00;99.90
37754;DHT22;23596;52.520;13.464;2023-01-25T14:03:14;2.00;99.90
37754;DHT22;23596;52.520;13.464;2023-01-25T14:05:47;2.10;99.90
37754;DHT22;23596;52.520;13.464;2023-01-25T14:08:17;2.10;99.90
37754;DHT22;23596;52.520;13.464;2023-01-25T14:10:43;2.10;99.90
37754;DHT22;23596;52.520;13.464;2023-01-25T14:13:13;2.10;99.90
37754;DHT22;23596;52.520;13.464;2023-01-25T14:15:38;2.10;99.90
37754;DHT22;23596;52.520;13.464;2023-01-25T14:18:12;2.20;99.90
37754;DHT22;23596;52.520;13.464;2023-01-25T14:20:42;2.20;99.90
37754;DHT22;23596;52.520;13.464;2023-01-25T14:23:25;2.20;99.90
37754;DHT22;23596;52.520;13.464;2023-01-25T14:25:52;2.10;99.90
37754;DHT22;23596;52.520;13.464;2023-01-25T14:28:19;2.10;99.90
37754;DHT22;23596;52.520;13.464;2023-01-25T14:30:54;2.20;99.90
37754;DHT22;23596;52.520;13.464;2023-01-25T14:35:52;2.10;99.90
37754;DHT22;23596;52.520;13.464;2023-01-25T14:38:32;2.10;99.90
37754;DHT22;23596;52.520;13.464;2023-01-25T14:43:38;2.10;99.90
37754;DHT22;23596;52.520;13.464;2023-01-25T14:46:21;2.10;99.90
37754;DHT22;23596;52.520;13.464;2023-01-25T14:48:48;2.00;99.90
37754;DHT22;23596;52.520;13.464;2023-01-25T14:51:26;2.00;99.90
37754;DHT22;23596;52.520;13.464;2023-01-25T14:54:01;2.00;99.90
37754;DHT22;23596;52.520;13.464;2023-01-25T14:56:57;1.90;99.90
37754;DHT22;23596;52.520;13.464;2023-01-25T14:59:32;1.80;99.90
37754;DHT22;23596;52.520;13.464;2023-01-25T15:07:44;1.80;99.90
37754;DHT22;23596;52.520;13.464;2023-01-25T15:10:50;1.80;99.90
37754;DHT22;23596;52.520;13.464;2023-01-25T15:15:58;1.80;99.90
37754;DHT22;23596;52.520;13.464;2023-01-25T15:21:14;1.90;99.90
37754;DHT22;23596;52.520;13.464;2023-01-25T15:23:41;1.90;99.90
37754;DHT22;23596;52.520;13.464;2023-01-25T15:26:23;2.00;99.90
37754;DHT22;23596;52.520;13.464;2023-01-25T15:28:51;2.00;99.90
37754;DHT22;23596;52.520;13.464;2023-01-25T15:31:28;2.00;99.90
37754;DHT22;23596;52.520;13.464;2023-01-25T15:33:55;2.00;99.90
37754;DHT22;23596;52.520;13.464;2023-01-25T15:36:21;1.90;99.90
37754;DHT22;23596;52.520;13.464;2023-01-25T15:38:46;1.90;99.90
37754;DHT22;23596;52.520;13.464;2023-01-25T15:41:12;1.80;99.90
37754;DHT22;23596;52.520;13.464;2023-01-25T15:43:38;1.80;99.90
37754;DHT22;23596;52.520;13.464;2023-01-25T15:46:05;1.80;99.90
37754;DHT22;23596;52.520;13.464;2023-01-25T15:48:38;1.80;99.90
37754;DHT22;23596;52.520;13.464;2023-01-25T15:51:05;1.70;99.90
37754;DHT22;23596;52.520;13.464;2023-01-25T15:53:30;1.70;99.90
37754;DHT22;23596;52.520;13.464;2023-01-25T15:56:02;0.30;99.90
37754;DHT22;23596;52.520;13.464;2023-01-25T15:58:35;1.70;99.90
37754;DHT22;23596;52.520;13.464;2023-01-25T16:01:01;1.80;99.90
37754;DHT22;23596;52.520;13.464;2023-01-25T16:03:28;1.70;99.90
37754;DHT22;23596;52.520;13.464;2023-01-25T16:06:30;1.70;99.90
37754;DHT22;23596;52.520;13.464;2023-01-25T16:08:57;1.80;99.90
37754;DHT22;23596;52.520;13.464;2023-01-25T16:11:24;1.80;99.90
37754;DHT22;23596;52.520;13.464;2023-01-25T16:13:49;1.80;99.90
37754;DHT22;23596;52.520;13.464;2023-01-25T16:16:21;1.90;99.90
37754;DHT22;23596;52.520;13.464;2023-01-25T16:18:48;1.90;99.90
37754;DHT22;23596;52.520;13.464;2023-01-25T16:21:14;1.90;99.90
37754;DHT22;23596;52.520;13.464;2023-01-25T16:23:40;1.90;99.90
37754;DHT22;23596;52.520;13.464;2023-01-25T16:26:16;1.90;99.90
37754;DHT22;23596;52.520;13.464;2023-01-25T16:28:43;1.90;99.90
37754;DHT22;23596;52.520;13.464;2023-01-25T16:31:13;1.90;99.90
37754;DHT22;23596;52.520;13.464;2023-01-25T16:33:39;1.90;99.90
37754;DHT22;23596;52.520;13.464;2023-01-25T16:36:14;3.50;99.90
37754;DHT22;23596;52.520;13.464;2023-01-25T16:38:41;2.50;99.90
37754;DHT22;23596;52.520;13.464;2023-01-25T16:41:06;1.90;99.90
37754;DHT22;23596;52.520;13.464;2023-01-25T16:43:32;1.90;99.90
37754;DHT22;23596;52.520;13.464;2023-01-25T16:45:58;1.90;99.90
37754;DHT22;23596;52.520;13.464;2023-01-25T16:48:24;2.20;99.90
37754;DHT22;23596;52.520;13.464;2023-01-25T16:50:50;1.80;99.90
37754;DHT22;23596;52.520;13.464;2023-01-25T16:53:16;1.90;99.90
37754;DHT22;23596;52.520;13.464;2023-01-25T16:55:42;1.90;99.90
37754;DHT22;23596;52.520;13.464;2023-01-25T16:58:07;1.80;99.90
37754;DHT22;23596;52.520;13.464;2023-01-25T17:00:33;1.80;99.90
37754;DHT22;23596;52.520;13.464;2023-01-25T17:02:59;1.70;99.90
37754;DHT22;23596;52.520;13.464;2023-01-25T17:05:26;1.70;99.90
37754;DHT22;23596;52.520;13.464;2023-01-25T17:07:55;1.70;99.90
37754;DHT22;23596;52.520;13.464;2023-01-25T17:10:21;1.70;99.90
37754;DHT22;23596;52.520;13.464;2023-01-25T17:12:47;1.60;99.90
37754;DHT22;23596;52.520;13.464;2023-01-25T17:15:13;1.60;99.90
37754;DHT22;23596;52.520;13.464;2023-01-25T17:17:39;1.70;99.90
37754;DHT22;23596;52.520;13.464;2023-01-25T17:20:05;1.60;99.90
37754;DHT22;23596;52.520;13.464;2023-01-25T17:22:32;1.60;99.90
37754;DHT22;23596;52.520;13.464;2023-01-25T17:25:02;1.60;99.90
37754;DHT22;23596;52.520;13.464;2023-01-25T17:27:28;1.60;99.90
37754;DHT22;23596;52.520;13.464;2023-01-25T17:29:54;1.60;99.90
37754;DHT22;23596;52.520;13.464;2023-01-25T17:32:19;1.60;99.90
37754;DHT22;23596;52.520;13.464;2023-01-25T17:34:45;1.60;99.90
37754;DHT22;23596;52.520;13.464;2023-01-25T17:37:11;1.60;99.90
37754;DHT22;23596;52.520;13.464;2023-01-25T17:39:36;1.60;99.90
37754;DHT22;23596;52.520;13.464;2023-01-25T17:42:02;1.60;99.90
37754;DHT22;23596;52.520;13.464;2023-01-25T17:44:30;1.60;99.90
37754;DHT22;23596;52.520;13.464;2023-01-25T17:46:55;1.60;99.90
37754;DHT22;23596;52.520;13.464;2023-01-25T17:49:21;1.60;99.90
37754;DHT22;23596;52.520;13.464;2023-01-25T17:51:47;1.50;99.90
37754;DHT22;23596;52.520;13.464;2023-01-25T17:54:13;1.60;99.90
37754;DHT22;23596;52.520;13.464;2023-01-25T17:56:39;1.60;99.90
37754;DHT22;23596;52.520;13.464;2023-01-25T17:59:05;1.50;99.90
37754;DHT22;23596;52.520;13.464;2023-01-25T18:01:34;1.60;99.90